Time;durP1;ratioP1;P1;durP2;ratioP2;P2;SDS_P1;SDS_P2;PMS_P1;PMS_P2;Temp;Humidity;BMP_temperature;BMP_pressure;BME280_temperature;BME280_humidity;BME280_pressure;Samples;Min_cycle;Max_cycle;Signal;HPM_P1;HPM_P2
2022/08/05 00:00:12;;;;;;;8.90;7.40;;;;;;;18.58;91.45;99480.41;109239;1276;22579;-87
2022/08/05 00:02:43;;;;;;;9.60;7.50;;;;;;;18.58;91.61;99480.08;107201;1277;138423;-86
2022/08/05 00:05:20;;;;;;;7.60;6.80;;;;;;;18.58;91.70;99482.34;107007;1276;22582;-83
2022/08/05 00:08:08;;;;;;;10.80;7.30;;;;;;;18.58;91.90;99482.34;106964;1276;138170;-83
2022/08/05 00:10:55;;;;;;;;;;;;;;;18.57;91.79;99479.19;107150;1276;24921;-83
2022/08/05 00:13:27;;;;;;;7.90;7.20;;;;;;;18.57;91.87;99480.02;107216;1276;124707;-84
2022/08/05 00:16:10;;;;;;;10.70;7.30;;;;;;;18.57;91.95;99475.99;107294;1276;22646;-84
2022/08/05 00:18:43;;;;;;;13.60;8.30;;;;;;;18.57;92.06;99480.58;109220;1276;22467;-84
2022/08/05 00:21:10;;;;;;;13.20;8.60;;;;;;;18.55;91.83;99486.14;109212;1275;138640;-83
2022/08/05 00:23:40;;;;;;;10.20;8.50;;;;;;;18.54;92.12;99488.04;109186;1276;22460;-84
2022/08/05 00:26:19;;;;;;;9.90;8.60;;;;;;;18.53;92.39;99487.77;109137;1276;138196;-85
2022/08/05 00:28:45;;;;;;;9.10;8.20;;;;;;;18.52;92.56;99487.47;109260;1276;22443;-85
2022/08/05 00:31:14;;;;;;;9.80;8.60;;;;;;;18.52;92.71;99486.10;109135;1277;138212;-83
2022/08/05 00:33:41;;;;;;;9.20;8.40;;;;;;;18.52;93.03;99486.77;109149;1276;22492;-84
2022/08/05 00:36:28;;;;;;;9.80;8.90;;;;;;;18.53;93.41;99486.02;109237;1276;22436;-85
2022/08/05 00:39:15;;;;;;;9.80;8.80;;;;;;;18.54;93.59;99479.70;109035;1276;138225;-85
2022/08/05 00:41:45;;;;;;;9.50;8.50;;;;;;;18.54;93.81;99477.10;109295;1276;23692;-84
2022/08/05 00:44:22;;;;;;;9.70;8.70;;;;;;;18.55;94.09;99470.23;108992;1276;138082;-84
2022/08/05 00:46:57;;;;;;;10.70;9.60;;;;;;;18.56;94.29;99468.39;109065;1276;23398;-84
2022/08/05 00:49:30;;;;;;;11.90;9.30;;;;;;;18.56;94.39;99459.50;107537;1276;137475;-85
2022/08/05 00:51:59;;;;;;;10.20;9.10;;;;;;;18.57;94.63;99462.04;107193;1277;22611;-84
2022/08/05 00:54:26;;;;;;;11.00;9.30;;;;;;;18.57;94.76;99464.18;107324;1277;24397;-83
2022/08/05 00:56:55;;;;;;;12.60;9.00;;;;;;;18.57;94.90;99462.91;106919;1274;138608;-84
2022/08/05 00:59:23;;;;;;;10.20;8.90;;;;;;;18.57;95.04;99463.69;107417;1274;22603;-84
2022/08/05 01:01:50;;;;;;;10.30;9.20;;;;;;;18.57;95.06;99466.77;107450;1277;137128;-84
2022/08/05 01:04:17;;;;;;;9.50;8.50;;;;;;;18.57;95.09;99462.46;107628;1276;22696;-83
2022/08/05 01:06:52;;;;;;;11.30;8.80;;;;;;;18.58;95.02;99460.70;107588;1276;25353;-84
2022/08/05 01:09:21;;;;;;;12.70;9.70;;;;;;;18.57;95.05;99463.02;107440;1276;138222;-84
2022/08/05 01:11:49;;;;;;;9.40;8.30;;;;;;;18.57;95.09;99461.10;107249;1276;24758;-84
2022/08/05 01:14:19;;;;;;;8.70;7.90;;;;;;;18.56;94.99;99459.08;107139;1277;138579;-84
2022/08/05 01:17:06;;;;;;;;;;;;;;;18.55;94.86;99455.72;107521;1274;22657;-84
2022/08/05 01:19:34;;;;;;;9.90;7.90;;;;;;;18.55;94.88;99456.40;107395;1276;124614;-83
2022/08/05 01:22:27;;;;;;;9.00;8.10;;;;;;;18.54;94.84;99455.42;107227;1276;23864;-84
2022/08/05 01:25:25;;;;;;;10.30;8.50;;;;;;;18.52;94.69;99454.79;107320;1276;22547;-84
2022/08/05 01:28:17;;;;;;;9.10;8.30;;;;;;;18.52;94.67;99456.40;107497;1277;22547;-83
2022/08/05 01:30:58;;;;;;;10.10;8.10;;;;;;;18.52;94.54;99461.05;107328;1277;22783;-83
2022/08/05 01:33:32;;;;;;;9.10;8.20;;;;;;;18.53;94.57;99463.61;109184;1276;23244;-84
2022/08/05 01:36:04;;;;;;;13.60;9.40;;;;;;;18.53;94.57;99460.83;109127;1276;23142;-83
2022/08/05 01:38:38;;;;;;;9.80;7.80;;;;;;;18.53;94.36;99449.98;109126;1276;138737;-84
2022/08/05 01:41:05;;;;;;;11.80;8.80;;;;;;;18.52;94.10;99444.20;109160;1276;22453;-84
2022/08/05 01:43:32;;;;;;;12.00;8.00;;;;;;;18.50;93.71;99438.50;109146;1275;138918;-84
2022/08/05 01:46:00;;;;;;;9.30;8.30;;;;;;;18.48;93.41;99438.77;108383;1276;23407;-84
2022/08/05 01:48:41;;;;;;;9.40;8.50;;;;;;;18.47;93.26;99441.46;107295;1276;22580;-84
2022/08/05 01:51:10;;;;;;;11.50;8.60;;;;;;;18.46;93.36;99436.31;107037;1276;138932;-83
2022/08/05 01:53:38;;;;;;;11.80;8.20;;;;;;;18.45;93.36;99438.09;107232;1276;23392;-84
2022/08/05 01:56:29;;;;;;;9.50;8.20;;;;;;;18.44;93.41;99435.25;107180;1276;138202;-84
2022/08/05 01:59:17;;;;;;;8.90;8.00;;;;;;;18.43;93.64;99437.48;107546;1276;22582;-84
2022/08/05 02:01:43;;;;;;;9.20;8.20;;;;;;;18.42;93.63;99441.69;107585;1276;138222;-84
2022/08/05 02:04:11;;;;;;;11.90;8.30;;;;;;;18.41;93.56;99445.96;107402;1276;25645;-84
2022/08/05 02:06:38;;;;;;;11.00;8.80;;;;;;;18.39;93.62;99451.69;107242;1276;22605;-84
2022/08/05 02:09:05;;;;;;;9.00;7.70;;;;;;;18.37;93.79;99445.54;107135;1277;138553;-84
2022/08/05 02:12:02;;;;;;;12.60;8.90;;;;;;;18.36;93.80;99444.84;107311;1276;22618;-84
2022/08/05 02:14:33;;;;;;;11.50;8.40;;;;;;;18.35;93.79;99452.65;107397;1276;138445;-84
2022/08/05 02:17:10;;;;;;;13.20;8.50;;;;;;;18.33;93.59;99454.73;107222;1277;22665;-84
2022/08/05 02:20:01;;;;;;;9.50;8.50;;;;;;;18.30;93.90;99457.10;107148;1276;138583;-82
2022/08/05 02:22:33;;;;;;;10.50;9.40;;;;;;;18.27;94.06;99455.38;107440;1276;23333;-83
2022/08/05 02:25:07;;;;;;;13.70;9.80;;;;;;;18.26;94.49;99455.30;107310;1276;138389;-85
2022/08/05 02:27:38;;;;;;;10.40;9.40;;;;;;;18.24;94.96;99462.39;107184;1277;22608;-83
2022/08/05 02:30:47;;;;;;;10.70;9.60;;;;;;;18.24;95.25;99463.45;107177;1277;22588;-83
2022/08/05 02:33:25;;;;;;;10.10;9.10;;;;;;;18.23;95.48;99467.48;107005;1277;138208;-83
2022/08/05 02:36:09;;;;;;;9.60;8.60;;;;;;;18.21;95.76;99467.41;107061;1276;22897;-83
2022/08/05 02:38:44;;;;;;;9.80;8.90;;;;;;;18.21;95.97;99470.23;107071;1276;138642;-82
2022/08/05 02:41:20;;;;;;;9.90;8.90;;;;;;;18.20;96.22;99467.40;106031;1276;1434241;-83
2022/08/05 02:45:41;;;;;;;10.40;9.40;;;;;;;18.22;96.46;99470.44;101835;1309;545872;-55
2022/08/05 02:48:21;;;;;;;11.20;10.10;;;;;;;18.21;96.65;99477.19;103967;1286;23906;-55
2022/08/05 02:50:59;;;;;;;11.10;10.00;;;;;;;18.21;96.61;99478.45;103903;1284;139399;-55
2022/08/05 02:53:27;;;;;;;10.60;8.60;;;;;;;18.22;96.72;99481.46;109305;1274;22588;-55
2022/08/05 02:56:06;;;;;;;9.50;8.60;;;;;;;18.21;96.74;99477.12;109061;1274;138543;-55
2022/08/05 02:58:35;;;;;;;11.10;9.60;;;;;;;18.21;96.71;99475.14;108343;1273;1069782;-55
2022/08/05 03:01:12;;;;;;;9.90;8.90;;;;;;;18.21;96.82;99474.42;109249;1273;139834;-55
2022/08/05 03:03:41;;;;;;;10.20;9.30;;;;;;;18.21;96.76;99470.02;109333;1273;22515;-56
2022/08/05 03:06:27;;;;;;;10.40;9.50;;;;;;;18.21;96.72;99470.78;109419;1273;22498;-55
2022/08/05 03:09:14;;;;;;;11.50;9.70;;;;;;;18.21;96.74;99472.50;109142;1274;138003;-55
2022/08/05 03:12:01;;;;;;;17.30;11.00;;;;;;;18.20;96.91;99467.77;109410;1273;23623;-55
2022/08/05 03:14:28;;;;;;;10.30;9.40;;;;;;;18.20;96.81;99470.20;109305;1273;139577;-55
2022/08/05 03:16:56;;;;;;;10.90;9.80;;;;;;;18.21;96.86;99463.61;109445;1273;22472;-55
2022/08/05 03:19:24;;;;;;;11.20;10.10;;;;;;;18.21;96.93;99465.53;109323;1272;139738;-55
2022/08/05 03:22:02;;;;;;;10.10;9.00;;;;;;;18.24;97.01;99467.26;109459;1273;24176;-55
2022/08/05 03:24:43;;;;;;;10.60;9.60;;;;;;;18.26;97.02;99468.70;109444;1273;22466;-56
2022/08/05 03:27:16;;;;;;;10.60;9.60;;;;;;;18.28;97.02;99469.83;109292;1273;139267;-56
2022/08/05 03:29:43;;;;;;;10.50;9.50;;;;;;;18.29;97.00;99469.04;109325;1273;22569;-56
2022/08/05 03:32:30;;;;;;;11.60;10.40;;;;;;;18.30;96.95;99467.95;109230;1273;138887;-56
2022/08/05 03:34:57;;;;;;;12.00;10.00;;;;;;;18.33;96.86;99469.48;109400;1273;22453;-56
2022/08/05 03:37:24;;;;;;;10.50;9.50;;;;;;;18.34;96.89;99467.89;109215;1273;138403;-56
2022/08/05 03:39:56;;;;;;;11.10;10.00;;;;;;;18.36;96.76;99470.39;109403;1273;22398;-56
2022/08/05 03:42:27;;;;;;;12.30;10.10;;;;;;;18.38;96.73;99469.36;109394;1273;22715;-56
2022/08/05 03:44:54;;;;;;;12.80;10.60;;;;;;;18.40;96.68;99470.55;109273;1272;139109;-56
2022/08/05 03:47:22;;;;;;;12.30;10.10;;;;;;;18.42;96.70;99475.48;109425;1273;22453;-56
2022/08/05 03:49:50;;;;;;;10.90;9.80;;;;;;;18.44;96.64;99479.07;109262;1273;138415;-57
2022/08/05 03:52:27;;;;;;;10.50;9.50;;;;;;;18.46;96.70;99479.90;109434;1272;22436;-56
2022/08/05 03:55:18;;;;;;;13.30;10.70;;;;;;;18.49;96.49;99480.59;109216;1273;139171;-56
2022/08/05 03:58:04;;;;;;;13.00;11.20;;;;;;;18.49;96.38;99479.10;106250;1274;24317;-57
2022/08/05 04:00:35;;;;;;;13.00;10.50;;;;;;;18.49;96.06;99479.09;105075;1273;22555;-56
2022/08/05 04:03:02;;;;;;;12.80;10.90;;;;;;;18.47;95.84;99477.49;104724;1277;138249;-57
2022/08/05 04:05:39;;;;;;;12.70;11.50;;;;;;;18.44;95.91;99473.05;105772;1265;22567;-63
2022/08/05 04:08:08;;;;;;;12.30;11.00;;;;;;;18.42;95.79;99475.73;106940;1278;138033;-83
2022/08/05 04:10:57;;;;;;;12.30;11.10;;;;;;;18.41;95.83;99478.14;107023;1280;22628;-85
2022/08/05 04:13:25;;;;;;;12.00;10.80;;;;;;;18.41;95.77;99478.52;106989;1278;138091;-84
2022/08/05 04:16:12;;;;;;;14.30;10.80;;;;;;;18.41;95.75;99476.38;107060;1278;22895;-85
2022/08/05 04:18:40;;;;;;;13.70;11.60;;;;;;;18.41;95.73;99474.00;107075;1280;22579;-83
2022/08/05 04:21:10;;;;;;;12.40;11.20;;;;;;;18.40;95.66;99473.19;106921;1279;138043;-83
2022/08/05 04:23:38;;;;;;;11.40;10.40;;;;;;;18.39;95.58;99480.38;106633;1280;23353;-84
2022/08/05 04:26:25;;;;;;;12.90;11.10;;;;;;;18.37;95.40;99479.19;106847;1280;138002;-85
2022/08/05 04:28:58;;;;;;;14.10;11.30;;;;;;;18.34;95.28;99475.78;107128;1279;26626;-84
2022/08/05 04:31:25;;;;;;;12.80;11.50;;;;;;;18.34;95.54;99479.60;106884;1279;139119;-85
2022/08/05 04:34:04;;;;;;;12.40;10.70;;;;;;;18.33;95.59;99480.99;106654;1280;26313;-86
2022/08/05 04:36:54;;;;;;;12.00;10.80;;;;;;;18.32;95.71;99475.90;106843;1281;22606;-87
2022/08/05 04:39:22;;;;;;;12.50;11.20;;;;;;;18.32;95.82;99478.33;107187;1279;138645;-88
2022/08/05 04:41:53;;;;;;;11.40;10.20;;;;;;;18.32;96.05;99479.27;107394;1279;23453;-86
2022/08/05 04:44:21;;;;;;;12.90;10.10;;;;;;;18.33;96.26;99478.85;106989;1279;137903;-85
2022/08/05 04:46:58;;;;;;;11.80;10.60;;;;;;;18.34;96.48;99476.63;107019;1280;22664;-88
2022/08/05 04:49:34;;;;;;;12.40;10.70;;;;;;;18.35;96.71;99477.48;106647;1279;138998;-86
2022/08/05 04:52:24;;;;;;;12.20;10.90;;;;;;;18.38;96.98;99475.59;106730;1279;22517;-86
2022/08/05 04:54:56;;;;;;;13.80;10.50;;;;;;;18.41;97.01;99482.44;106912;1281;23328;-87
2022/08/05 04:57:28;;;;;;;11.70;10.00;;;;;;;18.41;97.03;99479.94;106746;1281;137782;-86
2022/08/05 05:00:05;;;;;;;12.90;11.30;;;;;;;18.42;97.12;99480.86;106906;1280;24540;-85
2022/08/05 05:02:36;;;;;;;12.30;11.00;;;;;;;18.44;97.01;99481.77;106903;1279;137202;-86
2022/08/05 05:05:09;;;;;;;12.70;11.40;;;;;;;18.44;97.09;99481.17;107071;1280;22638;-86
2022/08/05 05:07:56;;;;;;;13.40;12.10;;;;;;;18.42;96.89;99479.99;107316;1278;138191;-85
2022/08/05 05:10:32;;;;;;;18.90;10.50;;;;;;;18.41;96.95;99478.84;107503;1277;23289;-85
2022/08/05 05:13:02;;;;;;;11.60;10.50;;;;;;;18.41;96.91;99477.80;107186;1277;22718;-87
2022/08/05 05:15:30;;;;;;;10.70;9.50;;;;;;;18.40;96.98;99472.25;107083;1277;138067;-87
2022/08/05 05:18:54;;;;;;;10.90;9.50;;;;;;;18.40;97.13;99470.92;107529;1278;22656;-89
2022/08/05 05:21:35;;;;;;;11.60;10.40;;;;;;;18.42;97.29;99478.27;106888;1278;22604;-86
2022/08/05 05:24:10;;;;;;;11.30;10.20;;;;;;;18.43;97.31;99486.14;107025;1278;24340;-85
2022/08/05 05:26:37;;;;;;;11.10;10.10;;;;;;;18.45;97.36;99484.83;107259;1278;139196;-86
2022/08/05 05:29:09;;;;;;;12.10;11.00;;;;;;;18.45;97.38;99482.02;107074;1278;22624;-86
2022/08/05 05:31:42;;;;;;;12.50;11.30;;;;;;;18.45;97.19;99483.23;107002;1278;138556;-86
2022/08/05 05:34:13;;;;;;;12.40;10.20;;;;;;;18.46;97.21;99484.55;107197;1277;22672;-86
2022/08/05 05:36:45;;;;;;;11.90;10.70;;;;;;;18.47;97.12;99491.73;107220;1277;22660;-86
2022/08/05 05:39:23;;;;;;;12.60;11.30;;;;;;;18.47;97.26;99493.77;107947;1277;139076;-88
2022/08/05 05:42:00;;;;;;;12.80;11.50;;;;;;;18.47;97.27;99493.52;109374;1278;22667;-86
2022/08/05 05:44:28;;;;;;;12.70;11.40;;;;;;;18.48;97.12;99491.48;108718;1276;137926;-86
2022/08/05 05:47:09;;;;;;;12.40;11.20;;;;;;;18.49;97.28;99495.36;107874;1277;22573;-85
2022/08/05 05:50:01;;;;;;;12.60;10.40;;;;;;;18.51;97.43;99499.14;107285;1277;138164;-88
2022/08/05 05:52:35;;;;;;;14.10;10.90;;;;;;;18.53;97.38;99498.81;107337;1277;22691;-90
2022/08/05 05:55:19;;;;;;;12.40;11.20;;;;;;;18.55;97.50;99500.33;108597;1278;137132;-87
2022/08/05 05:58:34;;;;;;;12.40;10.90;;;;;;;18.56;97.50;99500.85;107203;1277;22690;-89
2022/08/05 06:01:41;;;;;;;12.80;10.40;;;;;;;18.59;97.76;99506.01;107325;1277;138332;-89
2022/08/05 06:04:32;;;;;;;11.60;10.40;;;;;;;18.61;97.83;99505.48;108250;1277;22553;-87
2022/08/05 06:10:15;;;;;;;12.40;11.20;;;;;;;18.67;97.59;99511.71;107705;1287;22727;-87
2022/08/05 06:12:55;;;;;;;12.10;10.90;;;;;;;18.68;97.51;99508.88;106842;1287;22883;-86
2022/08/05 06:15:24;;;;;;;15.10;11.10;;;;;;;18.68;97.26;99511.54;107128;1286;138609;-87
2022/08/05 06:18:12;;;;;;;;;;;;;;;18.64;97.19;99509.95;107659;1287;22638;-88
2022/08/05 06:20:44;;;;;;;12.50;11.30;;;;;;;18.63;97.26;99513.24;107637;1286;124216;-88
2022/08/05 06:23:26;;;;;;;12.20;10.70;;;;;;;18.63;97.15;99506.61;107748;1284;22610;-88
2022/08/05 06:26:10;;;;;;;14.70;13.20;;;;;;;18.61;97.27;99502.45;107788;1284;138317;-87
2022/08/05 06:29:06;;;;;;;14.80;13.40;;;;;;;18.64;97.58;99503.60;107274;1286;22753;-87
2022/08/05 06:32:06;;;;;;;14.60;13.10;;;;;;;18.65;97.44;99501.92;106879;1285;139059;-88
2022/08/05 06:35:23;;;;;;;15.30;13.70;;;;;;;18.68;97.62;99502.91;106990;1286;23287;-87
2022/08/05 06:38:13;;;;;;;16.10;14.50;;;;;;;18.74;98.01;99498.25;107040;1284;137303;-86
2022/08/05 06:40:43;;;;;;;16.00;13.90;;;;;;;18.79;97.90;99496.30;107587;1278;22588;-88
2022/08/05 06:43:26;;;;;;;16.00;14.40;;;;;;;18.87;97.93;99502.59;108384;1279;23011;-88
2022/08/05 06:46:34;;;;;;;16.30;14.60;;;;;;;18.96;97.79;99507.38;107132;1287;25307;-87
2022/08/05 06:49:11;;;;;;;15.70;13.80;;;;;;;19.01;97.25;99503.01;108488;1277;22690;-87
2022/08/05 06:52:15;;;;;;;17.90;16.10;;;;;;;19.07;97.13;99500.48;107806;1281;22604;-86
2022/08/05 06:55:03;;;;;;;16.20;14.40;;;;;;;19.17;96.92;99505.80;108120;1281;22640;-89
2022/08/05 06:57:34;;;;;;;17.40;15.60;;;;;;;19.23;96.91;99505.09;107644;1281;136997;-88
2022/08/05 07:00:23;;;;;;;20.30;17.20;;;;;;;19.31;96.67;99505.50;107084;1281;22710;-87
2022/08/05 07:02:52;;;;;;;19.50;16.20;;;;;;;19.37;96.37;99508.31;107612;1281;137912;-87
2022/08/05 07:05:40;;;;;;;17.50;15.80;;;;;;;19.42;96.15;99514.55;107336;1280;22590;-88
2022/08/05 07:08:08;;;;;;;20.50;16.90;;;;;;;19.48;95.94;99518.23;107454;1282;139208;-87
2022/08/05 07:10:40;;;;;;;19.10;17.20;;;;;;;19.50;95.38;99521.59;107614;1279;22575;-89
2022/08/05 07:19:33;;;;;;;17.10;15.40;;;;;;;19.59;94.75;99523.38;107201;1280;24810;-90
2022/08/05 07:22:21;;;;;;;19.40;17.30;;;;;;;19.61;94.44;99522.10;106986;1279;22729;-91
2022/08/05 07:25:04;;;;;;;18.70;16.80;;;;;;;19.64;94.05;99527.84;107883;1279;22540;-90
2022/08/05 07:27:55;;;;;;;20.20;18.00;;;;;;;19.65;93.68;99531.36;108664;1276;137210;-88
2022/08/05 07:30:33;;;;;;;20.70;18.60;;;;;;;19.67;93.55;99529.33;108257;1278;22929;-87
2022/08/05 07:33:08;;;;;;;21.10;18.80;;;;;;;19.68;93.44;99527.96;108562;1277;138021;-87
2022/08/05 07:35:46;;;;;;;20.20;17.70;;;;;;;19.69;93.25;99526.77;107743;1278;22792;-89
2022/08/05 07:38:39;;;;;;;21.90;19.40;;;;;;;19.73;93.42;99529.66;107241;1279;138445;-87
2022/08/05 07:41:13;;;;;;;23.20;19.10;;;;;;;19.77;93.34;99530.14;107713;1277;22553;-90
2022/08/05 07:44:43;;;;;;;;;;;;;;;;;;;;;
2022/08/05 07:47:43;;;;;;;19.90;17.20;;;;;;;19.81;92.65;99533.02;106984;1288;22744;-88
2022/08/05 07:50:21;;;;;;;19.40;16.80;;;;;;;19.86;92.54;99535.50;106293;1288;138880;-88
2022/08/05 07:53:03;;;;;;;19.00;17.10;;;;;;;19.90;92.34;99535.88;106951;1288;22590;-87
2022/08/05 07:55:32;;;;;;;21.30;16.60;;;;;;;19.95;92.17;99535.30;106393;1288;138912;-87
2022/08/05 07:58:20;;;;;;;17.70;16.00;;;;;;;20.00;91.58;99535.04;106672;1287;23316;-85
2022/08/05 08:01:07;;;;;;;18.90;17.00;;;;;;;20.07;91.20;99538.27;106356;1288;22587;-87
2022/08/05 08:03:38;;;;;;;18.80;16.80;;;;;;;20.12;90.79;99536.90;106578;1290;22570;-87
2022/08/05 08:06:13;;;;;;;18.20;16.40;;;;;;;20.19;90.54;99536.50;106931;1290;24260;-88
2022/08/05 08:08:40;;;;;;;17.10;15.30;;;;;;;20.26;90.19;99540.29;105969;1290;137374;-87
2022/08/05 08:11:11;;;;;;;20.50;18.40;;;;;;;20.32;89.82;99541.55;106546;1290;22713;-87
2022/08/05 08:13:42;;;;;;;18.00;16.20;;;;;;;20.37;89.38;99541.05;106193;1290;139328;-88
2022/08/05 08:16:29;;;;;;;18.00;15.90;;;;;;;20.44;88.67;99536.23;106553;1289;25554;-89
2022/08/05 08:19:16;;;;;;;17.40;15.60;;;;;;;20.49;88.68;99536.16;106381;1290;138825;-88
2022/08/05 08:22:04;;;;;;;;;;;;;;;20.58;88.41;99538.23;106486;1287;23060;-86
2022/08/05 08:24:39;;;;;;;18.50;15.70;;;;;;;20.66;87.84;99543.41;108405;1279;22543;-87
2022/08/05 08:27:21;;;;;;;17.60;15.60;;;;;;;20.71;87.11;99541.61;109165;1280;137646;-89
2022/08/05 08:30:14;;;;;;;17.50;15.80;;;;;;;20.77;86.56;99546.89;108902;1281;22679;-88
2022/08/05 08:33:00;;;;;;;45.90;19.80;;;;;;;20.80;86.32;99542.64;108675;1281;137307;-87
2022/08/05 08:35:37;;;;;;;19.00;15.80;;;;;;;20.86;86.41;99545.16;108043;1280;22619;-88
2022/08/05 08:38:21;;;;;;;17.40;15.60;;;;;;;20.92;86.07;99541.77;107149;1281;137907;-87
2022/08/05 08:41:07;;;;;;;18.30;16.20;;;;;;;20.97;85.88;99545.19;107668;1281;22580;-87
2022/08/05 08:43:37;;;;;;;18.20;16.40;;;;;;;21.03;85.71;99547.12;107508;1281;138961;-87
2022/08/05 08:46:27;;;;;;;19.50;16.40;;;;;;;21.09;85.68;99545.09;107403;1281;22598;-86
2022/08/05 08:49:02;;;;;;;18.30;16.50;;;;;;;21.13;85.46;99541.45;107284;1281;25541;-88
2022/08/05 08:51:57;;;;;;;20.00;16.70;;;;;;;21.18;84.72;99542.85;107684;1279;23313;-87
2022/08/05 08:54:35;;;;;;;20.40;18.20;;;;;;;21.22;84.58;99546.02;107497;1279;24143;-86
2022/08/05 08:57:35;;;;;;;20.20;17.50;;;;;;;21.24;84.38;99552.27;107710;1281;138983;-86
2022/08/05 09:00:29;;;;;;;18.40;16.50;;;;;;;21.24;84.07;99559.80;107265;1281;22589;-89
2022/08/05 09:03:06;;;;;;;17.60;15.80;;;;;;;21.23;83.76;99559.83;107347;1281;138766;-89
2022/08/05 09:05:39;;;;;;;17.80;16.00;;;;;;;21.20;83.33;99558.70;106839;1281;22678;-87
2022/08/05 09:08:26;;;;;;;18.90;17.10;;;;;;;21.19;83.09;99563.17;107110;1281;138640;-86
2022/08/05 09:10:56;;;;;;;18.80;16.90;;;;;;;21.17;83.06;99558.36;107166;1281;23688;-87
2022/08/05 09:13:25;;;;;;;18.10;16.40;;;;;;;21.15;83.14;99556.92;107205;1280;22578;-88
2022/08/05 09:15:58;;;;;;;20.00;15.80;;;;;;;21.15;83.13;99560.25;107046;1281;23952;-88
2022/08/05 09:18:25;;;;;;;20.80;17.90;;;;;;;21.14;83.34;99561.02;107240;1281;24148;-87
2022/08/05 09:21:06;;;;;;;21.20;18.00;;;;;;;21.16;83.24;99565.23;107275;1280;138238;-87
2022/08/05 09:23:46;;;;;;;20.90;18.00;;;;;;;21.17;83.52;99571.47;107396;1280;26612;-91
2022/08/05 09:26:20;;;;;;;18.50;16.50;;;;;;;21.17;83.63;99567.20;107115;1281;138697;-90
2022/08/05 09:29:15;;;;;;;17.10;15.30;;;;;;;21.20;83.17;99571.99;107555;1281;23055;-86
2022/08/05 09:32:04;;;;;;;17.70;15.70;;;;;;;21.19;83.08;99566.67;106906;1281;139430;-86
2022/08/05 09:35:11;;;;;;;18.40;16.50;;;;;;;21.21;83.18;99572.73;107101;1281;25892;-88
2022/08/05 09:37:59;;;;;;;17.30;15.30;;;;;;;21.22;83.00;99574.51;107327;1281;138823;-88
2022/08/05 09:40:46;;;;;;;16.80;15.10;;;;;;;21.22;82.93;99571.77;107451;1280;22610;-87
2022/08/05 09:43:37;;;;;;;17.10;15.40;;;;;;;21.24;82.92;99572.66;107202;1281;23456;-86
2022/08/05 09:46:33;;;;;;;19.90;17.80;;;;;;;21.28;82.62;99575.19;107630;1281;22579;-86
2022/08/05 09:49:03;;;;;;;17.60;15.90;;;;;;;21.31;81.80;99574.64;107755;1281;22569;-86
2022/08/05 09:51:44;;;;;;;17.10;14.50;;;;;;;21.34;81.35;99575.25;106835;1281;139108;-87
2022/08/05 09:54:15;;;;;;;18.40;16.60;;;;;;;21.38;81.51;99573.05;106651;1281;22590;-87
2022/08/05 09:56:55;;;;;;;20.50;16.50;;;;;;;21.44;81.61;99572.99;106540;1281;138774;-87
2022/08/05 09:59:27;;;;;;;17.70;15.90;;;;;;;21.48;81.45;99578.58;107174;1281;22587;-85
2022/08/05 10:02:07;;;;;;;19.70;17.80;;;;;;;21.52;81.54;99577.96;107374;1279;138760;-88
2022/08/05 10:04:39;;;;;;;17.60;15.90;;;;;;;21.56;81.53;99577.01;106686;1281;22708;-86
2022/08/05 10:07:20;;;;;;;20.20;16.00;;;;;;;21.59;80.97;99573.09;106776;1285;22556;-87
2022/08/05 10:10:09;;;;;;;18.10;15.50;;;;;;;21.62;80.91;99575.94;106515;1285;23469;-86
2022/08/05 10:12:43;;;;;;;17.10;15.20;;;;;;;21.66;81.09;99576.49;106708;1287;24489;-86
2022/08/05 10:15:17;;;;;;;19.00;15.40;;;;;;;21.71;80.72;99574.17;106361;1287;139329;-87
2022/08/05 10:18:14;;;;;;;19.40;16.30;;;;;;;21.75;80.60;99580.20;106969;1284;22594;-85
2022/08/05 10:20:47;;;;;;;18.70;16.80;;;;;;;21.77;80.38;99580.23;106559;1284;138807;-87
2022/08/05 10:23:17;;;;;;;21.60;16.60;;;;;;;21.78;80.53;99576.30;106597;1287;22834;-90
2022/08/05 10:26:17;;;;;;;18.10;16.40;;;;;;;21.80;80.62;99576.71;106841;1284;138929;-91
2022/08/05 10:28:51;;;;;;;18.30;16.40;;;;;;;21.83;80.27;99578.50;106643;1284;22791;-88
2022/08/05 10:31:22;;;;;;;18.30;16.50;;;;;;;21.84;79.83;99581.25;106882;1287;22693;-88
2022/08/05 10:34:12;;;;;;;18.30;16.40;;;;;;;21.83;79.82;99585.39;107193;1284;22576;-88
2022/08/05 10:36:52;;;;;;;18.90;17.00;;;;;;;21.82;79.79;99583.66;106652;1287;22699;-87
2022/08/05 10:39:23;;;;;;;18.00;15.30;;;;;;;21.81;80.06;99585.03;106800;1287;138554;-86
2022/08/05 10:42:21;;;;;;;18.10;16.10;;;;;;;21.81;80.43;99589.50;107337;1287;22597;-85
2022/08/05 10:45:02;;;;;;;21.90;16.80;;;;;;;21.80;80.15;99587.54;106769;1279;138717;-87
2022/08/05 10:47:54;;;;;;;20.20;15.90;;;;;;;21.79;80.19;99586.63;106815;1280;25061;-86
2022/08/05 10:51:05;;;;;;;21.10;17.90;;;;;;;21.79;80.47;99589.64;106858;1280;139130;-85
2022/08/05 10:53:56;;;;;;;19.10;17.20;;;;;;;21.80;80.65;99586.04;106967;1280;22722;-87
2022/08/05 10:56:29;;;;;;;20.70;17.60;;;;;;;21.82;80.67;99585.43;107301;1279;138515;-88
2022/08/05 10:59:03;;;;;;;21.30;18.10;;;;;;;21.83;80.31;99585.09;106868;1278;24287;-87
2022/08/05 11:02:13;;;;;;;20.20;17.60;;;;;;;21.84;80.28;99583.07;107018;1281;139004;-86
2022/08/05 11:05:04;;;;;;;19.40;17.20;;;;;;;21.86;80.60;99582.18;107630;1279;22838;-85
2022/08/05 11:07:33;;;;;;;20.60;17.20;;;;;;;21.88;80.27;99584.41;107508;1279;22598;-87
2022/08/05 11:10:26;;;;;;;19.70;17.50;;;;;;;21.90;80.08;99583.72;105719;1271;69752;-61
2022/08/05 11:12:55;;;;;;;21.50;19.40;;;;;;;21.91;79.94;99581.86;109352;1274;22526;-62
2022/08/05 11:15:33;;;;;;;20.40;18.30;;;;;;;21.93;80.26;99577.33;109280;1274;138861;-62
2022/08/05 11:18:28;;;;;;;24.40;19.20;;;;;;;21.98;80.47;99574.88;109308;1274;22475;-62
2022/08/05 11:20:55;;;;;;;20.10;18.00;;;;;;;22.05;79.99;99573.28;108816;1274;139648;-62
2022/08/05 11:23:51;;;;;;;21.50;17.90;;;;;;;22.11;79.99;99568.31;108974;1274;22426;-62
2022/08/05 11:26:38;;;;;;;20.50;18.40;;;;;;;22.19;80.63;99565.14;108858;1274;138460;-62
2022/08/05 11:29:06;;;;;;;20.40;18.40;;;;;;;22.29;80.29;99564.09;108797;1274;22470;-64
2022/08/05 11:31:42;;;;;;;19.40;17.50;;;;;;;22.37;79.96;99569.20;108739;1274;140065;-64
2022/08/05 11:34:36;;;;;;;24.00;18.40;;;;;;;22.45;79.20;99570.00;108672;1274;23144;-64
2022/08/05 11:37:03;;;;;;;19.50;17.30;;;;;;;22.52;78.58;99571.69;108934;1274;22551;-63
2022/08/05 11:39:50;;;;;;;20.40;18.10;;;;;;;22.56;78.39;99568.00;107504;1274;138628;-63
2022/08/05 11:42:31;;;;;;;20.10;18.10;;;;;;;22.61;77.97;99570.00;104736;1274;22554;-63
2022/08/05 11:45:04;;;;;;;21.30;17.80;;;;;;;22.63;77.41;99566.83;104527;1277;138507;-63
2022/08/05 11:47:49;;;;;;;20.80;18.60;;;;;;;22.64;76.86;99565.73;108777;1277;22453;-62
2022/08/05 11:50:20;;;;;;;19.10;17.20;;;;;;;22.65;76.92;99568.78;108725;1277;138712;-61
2022/08/05 11:52:47;;;;;;;21.20;18.60;;;;;;;22.69;77.02;99564.64;108943;1274;22419;-61
2022/08/05 11:55:18;;;;;;;19.40;17.60;;;;;;;22.74;76.76;99562.58;108896;1277;22463;-62
2022/08/05 11:57:45;;;;;;;19.80;17.00;;;;;;;22.79;76.73;99558.52;108698;1277;140546;-61
2022/08/05 12:00:32;;;;;;;21.00;17.70;;;;;;;22.87;76.38;99560.63;108910;1274;22521;-61
2022/08/05 12:03:15;;;;;;;19.50;17.50;;;;;;;22.93;76.56;99564.52;108783;1274;138802;-61
2022/08/05 12:05:57;;;;;;;22.50;18.50;;;;;;;22.99;76.13;99562.44;108902;1274;22387;-63
2022/08/05 12:08:25;;;;;;;19.90;18.00;;;;;;;23.03;76.08;99565.48;108763;1277;139100;-61
2022/08/05 12:10:52;;;;;;;18.40;16.70;;;;;;;23.06;75.59;99563.11;108816;1277;22435;-63
2022/08/05 12:13:20;;;;;;;19.00;17.20;;;;;;;23.08;75.55;99557.71;108669;1277;22535;-62
2022/08/05 12:16:08;;;;;;;22.20;18.20;;;;;;;23.11;75.57;99550.27;108773;1276;22424;-62